createdAt,value
2022-09-12T00:01:40.983Z,101575.19
2022-09-12T00:04:11.996Z,101578.69
2022-09-12T00:06:40.286Z,101587.47
2022-09-12T00:09:12.741Z,101581.22
2022-09-12T00:11:42.689Z,101581.28
2022-09-12T00:14:12.845Z,101586.63
2022-09-12T00:16:41.744Z,101572.59
2022-09-12T00:19:11.247Z,101577.00
2022-09-12T00:21:41.273Z,101569.97
2022-09-12T00:24:12.174Z,101573.50
2022-09-12T00:26:40.308Z,101566.44
2022-09-12T00:29:08.568Z,101566.44
2022-09-12T00:31:37.077Z,101556.78
2022-09-12T00:34:05.303Z,101560.28
2022-09-12T00:36:33.452Z,101559.44
2022-09-12T00:39:01.807Z,101557.66
2022-09-12T00:41:34.547Z,101552.41
2022-09-12T00:44:24.368Z,101547.13
2022-09-12T00:46:56.905Z,101552.38
2022-09-12T00:49:29.359Z,101545.31
2022-09-12T00:52:04.605Z,101547.03
2022-09-12T00:54:36.727Z,101549.72
2022-09-12T00:57:09.790Z,101548.78
2022-09-12T00:59:45.572Z,101550.56
2022-09-12T01:02:14.037Z,101542.59
2022-09-12T01:04:43.478Z,101541.69
2022-09-12T01:07:12.431Z,101543.50
2022-09-12T01:09:43.269Z,101555.81
2022-09-12T01:12:15.209Z,101549.69
2022-09-12T01:14:43.877Z,101552.34
2022-09-12T01:17:14.253Z,101554.09
2022-09-12T01:20:10.290Z,101550.56
2022-09-12T01:23:01.900Z,101552.34
2022-09-12T01:25:34.944Z,101538.16
2022-09-12T01:28:35.439Z,101547.03
2022-09-12T01:31:10.156Z,101543.56
2022-09-12T01:33:54.536Z,101539.19
2022-09-12T01:36:42.356Z,101545.34
2022-09-12T01:39:18.793Z,101534.75
2022-09-12T01:41:54.164Z,101539.13
2022-09-12T01:44:30.565Z,101540.00
2022-09-12T01:47:08.709Z,101545.28
2022-09-12T01:49:41.646Z,101531.16
2022-09-12T01:52:18.644Z,101527.63
2022-09-12T01:54:52.555Z,101529.41
2022-09-12T01:57:28.467Z,101527.69
2022-09-12T02:00:03.856Z,101533.81
2022-09-12T02:02:37.020Z,101524.13
2022-09-12T02:05:09.798Z,101525.88
2022-09-12T02:07:41.115Z,101529.41
2022-09-12T02:10:13.770Z,101534.66
2022-09-12T02:12:47.876Z,101527.59
2022-09-12T02:15:20.298Z,101531.09
2022-09-12T02:17:53.604Z,101529.38
2022-09-12T02:20:46.462Z,101527.59
2022-09-12T02:23:18.515Z,101524.09
2022-09-12T02:25:50.057Z,101517.88
2022-09-12T02:28:23.113Z,101525.81
2022-09-12T02:31:00.814Z,101517.84
2022-09-12T02:33:37.529Z,101521.34
2022-09-12T02:36:14.532Z,101532.81
2022-09-12T02:38:45.850Z,101529.22
2022-09-12T02:41:17.136Z,101532.75
2022-09-12T02:43:45.372Z,101518.66
2022-09-12T02:46:20.424Z,101523.09
2022-09-12T02:48:49.929Z,101526.63
2022-09-12T02:51:23.401Z,101515.16
2022-09-12T02:53:52.438Z,101514.25
2022-09-12T02:56:26.146Z,101509.81
2022-09-12T02:58:55.935Z,101513.31
2022-09-12T03:01:37.802Z,101509.81
2022-09-12T03:04:41.143Z,101512.44
2022-09-12T03:07:17.783Z,101506.25
2022-09-12T03:09:52.226Z,101494.78
2022-09-12T03:12:42.458Z,101504.50
2022-09-12T03:15:23.986Z,101501.81
2022-09-12T03:18:06.293Z,101493.88
2022-09-12T03:20:46.444Z,101493.00
2022-09-12T03:23:25.879Z,101500.94
2022-09-12T03:26:00.465Z,101494.72
2022-09-12T03:28:29.399Z,101495.56
2022-09-12T03:30:58.195Z,101500.81
2022-09-12T03:33:28.048Z,101503.44
2022-09-12T03:35:56.864Z,101496.34
2022-09-12T03:38:26.408Z,101484.88
2022-09-12T03:40:55.103Z,101488.38
2022-09-12T03:43:23.507Z,101481.28
2022-09-12T03:45:53.539Z,101485.75
2022-09-12T03:48:22.091Z,101486.66
2022-09-12T03:50:50.399Z,101488.41
2022-09-12T03:53:18.597Z,101486.66
2022-09-12T03:55:48.247Z,101489.34
2022-09-12T03:58:16.485Z,101469.09
2022-09-12T04:00:45.622Z,101482.22
2022-09-12T04:03:14.000Z,101487.50
2022-09-12T04:05:42.298Z,101484.88
2022-09-12T04:08:10.357Z,101486.69
2022-09-12T04:10:38.637Z,101480.47
2022-09-12T04:13:10.059Z,101481.38
2022-09-12T04:15:38.107Z,101491.97
2022-09-12T04:18:06.892Z,101483.13
2022-09-12T04:20:35.136Z,101487.53
2022-09-12T04:23:03.231Z,101478.75
2022-09-12T04:25:31.682Z,101481.38
2022-09-12T04:27:59.802Z,101482.25
2022-09-12T04:30:29.306Z,101481.41
2022-09-12T04:32:57.805Z,101483.19
2022-09-12T04:35:26.029Z,101476.16
2022-09-12T04:37:54.414Z,101478.81
2022-09-12T04:40:23.102Z,101476.19
2022-09-12T04:42:51.358Z,101470.91
2022-09-12T04:45:19.598Z,101484.16
2022-09-12T04:47:49.464Z,101478.81
2022-09-12T04:50:17.737Z,101465.66
2022-09-12T04:52:51.130Z,101464.78
2022-09-12T04:55:19.449Z,101477.97
2022-09-12T04:57:47.496Z,101472.69
2022-09-12T05:00:16.054Z,101468.34
2022-09-12T05:02:44.490Z,101469.16
2022-09-12T05:05:14.065Z,101449.81
2022-09-12T05:07:42.352Z,101461.13
2022-09-12T05:10:13.611Z,101472.66
2022-09-12T05:12:41.687Z,101465.50
2022-09-12T05:15:11.141Z,101471.78
2022-09-12T05:17:39.559Z,101473.53
2022-09-12T05:20:09.801Z,101476.09
2022-09-12T05:22:42.686Z,101469.06
2022-09-12T05:25:13.363Z,101468.19
2022-09-12T05:27:41.602Z,101467.31
2022-09-12T05:30:11.677Z,101465.50
2022-09-12T05:32:40.483Z,101467.22
2022-09-12T05:35:08.810Z,101474.28
2022-09-12T05:37:38.624Z,101472.50
2022-09-12T05:40:08.731Z,101462.66
2022-09-12T05:42:36.920Z,101463.47
2022-09-12T05:45:06.167Z,101463.41
2022-09-12T05:47:34.386Z,101463.47
2022-09-12T05:50:02.460Z,101466.03
2022-09-12T05:52:31.293Z,101463.47
2022-09-12T05:55:00.979Z,101467.09
2022-09-12T05:57:29.362Z,101472.31
2022-09-12T05:59:57.676Z,101474.09
2022-09-12T06:02:26.745Z,101474.94
2022-09-12T06:04:54.927Z,101477.66
2022-09-12T06:07:23.268Z,101482.91
2022-09-12T06:09:51.753Z,101479.38
2022-09-12T06:12:21.311Z,101481.09
2022-09-12T06:14:49.721Z,101480.19
2022-09-12T06:17:18.955Z,101470.47
2022-09-12T06:19:47.152Z,101473.06
2022-09-12T06:22:15.739Z,101477.44
2022-09-12T06:24:44.047Z,101477.41
2022-09-12T06:27:12.159Z,101482.63
2022-09-12T06:29:41.911Z,101479.06
2022-09-12T06:32:11.761Z,101479.03
2022-09-12T06:34:40.047Z,101477.19
2022-09-12T06:37:08.536Z,101471.81
2022-09-12T06:39:38.754Z,101480.53
2022-09-12T06:42:07.212Z,101484.13
2022-09-12T06:44:35.324Z,101478.84
2022-09-12T06:47:05.468Z,101482.34
2022-09-12T06:49:33.891Z,101478.72
2022-09-12T06:52:02.248Z,101475.13
2022-09-12T06:54:31.249Z,101468.91
2022-09-12T06:56:59.410Z,101473.19
2022-09-12T06:59:27.676Z,101474.84
2022-09-12T07:01:56.821Z,101477.41
2022-09-12T07:04:26.608Z,101479.16
2022-09-12T07:06:54.714Z,101469.31
2022-09-12T07:09:22.949Z,101467.41
2022-09-12T07:11:51.263Z,101471.63
2022-09-12T07:14:19.471Z,101469.84
2022-09-12T07:16:47.638Z,101467.03
2022-09-12T07:19:15.749Z,101466.91
2022-09-12T07:21:45.695Z,101458.81
2022-09-12T07:24:13.722Z,101463.09
2022-09-12T07:26:42.714Z,101462.09
2022-09-12T07:29:35.879Z,101455.75
2022-09-12T07:32:06.079Z,101462.78
2022-09-12T07:34:35.169Z,101454.78
2022-09-12T07:37:04.804Z,101464.53
2022-09-12T07:39:33.069Z,101459.16
2022-09-12T07:42:01.788Z,101457.34
2022-09-12T07:44:30.292Z,101466.03
2022-09-12T07:46:58.468Z,101459.75
2022-09-12T07:49:26.777Z,101461.50
2022-09-12T07:51:55.551Z,101460.59
2022-09-12T07:54:25.173Z,101458.78
2022-09-12T07:56:53.375Z,101450.84
2022-09-12T07:59:41.833Z,101453.47
2022-09-12T08:02:17.035Z,101446.41
2022-09-12T08:04:46.425Z,101446.34
2022-09-12T08:07:14.543Z,101454.19
2022-09-12T08:09:44.121Z,101446.19
2022-09-12T08:12:12.330Z,101449.63
2022-09-12T08:14:40.472Z,101444.25
2022-09-12T08:17:08.737Z,101443.22
2022-09-12T08:19:37.058Z,101445.75
2022-09-12T08:22:05.572Z,101444.91
2022-09-12T08:24:33.888Z,101449.09
2022-09-12T08:27:03.717Z,101447.09
2022-09-12T08:29:31.839Z,101446.91
2022-09-12T08:32:00.123Z,101442.47
2022-09-12T08:34:28.611Z,101439.72
2022-09-12T08:36:56.738Z,101444.53
2022-09-12T08:39:25.182Z,101432.69
2022-09-12T08:42:02.791Z,101437.09
2022-09-12T08:44:48.420Z,101438.63
2022-09-12T08:47:23.655Z,101441.41
2022-09-12T08:50:11.879Z,101436.38
2022-09-12T08:52:44.882Z,101441.84
2022-09-12T08:55:26.971Z,101437.09
2022-09-12T08:57:55.578Z,101437.16
2022-09-12T09:00:26.733Z,101432.00
2022-09-12T09:03:37.951Z,101428.72
2022-09-12T09:06:15.423Z,101427.28
2022-09-12T09:09:03.826Z,101430.97
2022-09-12T09:12:01.999Z,101417.75
2022-09-12T09:14:49.068Z,101428.88
2022-09-12T09:17:24.869Z,101425.03
2022-09-12T09:20:00.151Z,101425.41
2022-09-12T09:22:39.800Z,101421.59
2022-09-12T09:25:14.226Z,101424.09
2022-09-12T09:27:48.215Z,101426.03
2022-09-12T09:30:18.835Z,101429.31
2022-09-12T09:32:53.801Z,101424.19
2022-09-12T09:35:36.217Z,101433.50
2022-09-12T09:38:20.642Z,101426.69
2022-09-12T09:41:01.602Z,101432.69
2022-09-12T09:43:30.371Z,101425.34
2022-09-12T09:46:00.514Z,101424.50
2022-09-12T09:48:33.582Z,101414.09
2022-09-12T09:51:04.403Z,101418.56
2022-09-12T09:53:38.930Z,101423.09
2022-09-12T09:56:12.861Z,101415.75
2022-09-12T09:58:41.573Z,101415.34
2022-09-12T10:01:17.077Z,101426.41
2022-09-12T10:03:52.003Z,101427.50
2022-09-12T10:06:32.477Z,101423.97
2022-09-12T10:09:18.876Z,101427.50
2022-09-12T10:11:47.667Z,101421.38
2022-09-12T10:14:41.105Z,101426.22
2022-09-12T10:17:33.926Z,101424.50
2022-09-12T10:20:22.035Z,101414.28
2022-09-12T10:22:51.025Z,101419.25
2022-09-12T10:25:20.722Z,101422.59
2022-09-12T10:27:56.590Z,101417.50
2022-09-12T10:30:28.794Z,101422.84
2022-09-12T10:33:00.710Z,101412.81
2022-09-12T10:35:43.997Z,101413.22
2022-09-12T10:38:17.200Z,101410.41
2022-09-12T10:40:45.945Z,101400.69
2022-09-12T10:43:19.864Z,101401.66
2022-09-12T10:45:48.220Z,101405.97
2022-09-12T10:48:29.708Z,101414.03
2022-09-12T10:51:00.266Z,101408.44
2022-09-12T10:53:34.318Z,101406.47
2022-09-12T10:56:13.676Z,101404.66
2022-09-12T10:58:55.482Z,101405.41
2022-09-12T11:01:36.537Z,101409.84
2022-09-12T11:04:21.822Z,101409.19
2022-09-12T11:07:00.099Z,101410.16
2022-09-12T11:09:37.488Z,101405.69
2022-09-12T11:12:13.123Z,101409.56
2022-09-12T11:14:55.883Z,101407.16
2022-09-12T11:17:38.911Z,101419.50
2022-09-12T11:20:42.342Z,101408.25
2022-09-12T11:23:45.590Z,101412.63
2022-09-12T11:26:29.322Z,101412.34
2022-09-12T11:29:08.780Z,101414.16
2022-09-12T11:31:59.563Z,101411.75
2022-09-12T11:34:38.590Z,101413.22
2022-09-12T11:37:21.324Z,101403.13
2022-09-12T11:39:55.606Z,101412.75
2022-09-12T11:42:33.141Z,101405.00
2022-09-12T11:45:11.878Z,101396.75
2022-09-12T11:47:41.742Z,101402.88
2022-09-12T11:50:23.943Z,101402.28
2022-09-12T11:52:54.619Z,101402.00
2022-09-12T11:55:28.483Z,101402.91
2022-09-12T11:57:59.337Z,101406.47
2022-09-12T12:00:33.649Z,101400.88
2022-09-12T12:03:09.678Z,101403.69
2022-09-12T12:05:44.568Z,101401.78
2022-09-12T12:08:14.722Z,101396.19
2022-09-12T12:10:44.992Z,101394.25
2022-09-12T12:13:22.894Z,101397.25
2022-09-12T12:15:55.655Z,101393.59
2022-09-12T12:18:25.975Z,101394.16
2022-09-12T12:20:55.846Z,101394.34
2022-09-12T12:23:26.477Z,101383.66
2022-09-12T12:25:56.662Z,101378.63
2022-09-12T12:29:03.722Z,101382.19
2022-09-12T12:31:32.519Z,101380.25
2022-09-12T12:34:20.994Z,101382.84
2022-09-12T12:36:50.379Z,101380.06
2022-09-12T12:40:03.223Z,101376.94
2022-09-12T12:43:10.096Z,101384.22
2022-09-12T12:46:05.945Z,101360.56
2022-09-12T12:49:01.728Z,101354.25
2022-09-12T12:51:36.588Z,101354.25
2022-09-12T12:54:12.838Z,101354.03
2022-09-12T12:56:43.737Z,101357.75
2022-09-12T12:59:21.593Z,101361.22
2022-09-12T13:01:55.618Z,101343.44
2022-09-12T13:04:26.922Z,101333.34
2022-09-12T13:07:07.140Z,101337.44
2022-09-12T13:09:40.100Z,101322.41
2022-09-12T13:12:11.411Z,101328.31
2022-09-12T13:14:54.679Z,101316.56
2022-09-12T13:17:42.700Z,101316.56
2022-09-12T13:20:30.064Z,101312.19
2022-09-12T13:22:59.682Z,101303.03
2022-09-12T13:25:33.008Z,101302.81
2022-09-12T13:28:07.836Z,101303.84
2022-09-12T13:30:38.087Z,101301.91
2022-09-12T13:33:23.357Z,101297.78
2022-09-12T13:36:32.414Z,101295.69
2022-09-12T13:39:16.678Z,101290.81
2022-09-12T13:42:09.043Z,101283.38
2022-09-12T13:44:44.027Z,101270.66
2022-09-12T13:47:17.049Z,101286.25
2022-09-12T13:49:48.003Z,101274.03
2022-09-12T13:52:20.233Z,101272.31
2022-09-12T13:54:51.301Z,101273.94
2022-09-12T13:57:31.276Z,101262.72
2022-09-12T14:00:01.551Z,101273.31
2022-09-12T14:02:31.477Z,101267.50
2022-09-12T14:05:12.515Z,101261.34
2022-09-12T14:07:52.718Z,101259.34
2022-09-12T14:10:28.325Z,101260.19
2022-09-12T14:12:58.926Z,101254.97
2022-09-12T14:15:30.588Z,101247.47
2022-09-12T14:18:01.693Z,101252.19
2022-09-12T14:20:33.328Z,101238.44
2022-09-12T14:23:04.716Z,101236.50
2022-09-12T14:25:39.386Z,101239.00
2022-09-12T14:28:08.062Z,101235.50
2022-09-12T14:30:38.008Z,101218.53
2022-09-12T14:33:21.433Z,101218.84
2022-09-12T14:35:53.284Z,101215.13
2022-09-12T14:38:31.845Z,101207.94
2022-09-12T14:41:03.048Z,101206.00
2022-09-12T14:43:33.283Z,101202.41
2022-09-12T14:46:04.446Z,101206.19
2022-09-12T14:48:37.770Z,101198.66
2022-09-12T14:51:08.659Z,101191.72
2022-09-12T14:53:39.849Z,101199.53
2022-09-12T14:56:10.557Z,101186.03
2022-09-12T14:58:39.895Z,101188.63
2022-09-12T15:01:25.797Z,101185.16
2022-09-12T15:03:57.671Z,101183.28
2022-09-12T15:06:30.840Z,101180.44
2022-09-12T15:09:01.084Z,101190.16
2022-09-12T15:11:29.302Z,101174.16
2022-09-12T15:13:57.534Z,101165.31
2022-09-12T15:16:25.796Z,101165.56
2022-09-12T15:18:54.102Z,101165.97
2022-09-12T15:21:22.917Z,101161.66
2022-09-12T15:23:53.957Z,101159.06
2022-09-12T15:26:24.284Z,101161.91
2022-09-12T15:28:52.671Z,101155.69
2022-09-12T15:31:25.995Z,101162.97
2022-09-12T15:33:55.184Z,101158.59
2022-09-12T15:36:24.924Z,101157.50
2022-09-12T15:38:54.745Z,101156.06
2022-09-12T15:41:27.234Z,101157.72
2022-09-12T15:43:56.672Z,101149.09
2022-09-12T15:46:25.085Z,101150.84
2022-09-12T15:48:53.358Z,101148.78
2022-09-12T15:51:22.995Z,101134.16
2022-09-12T15:53:52.631Z,101156.19
2022-09-12T15:56:23.894Z,101149.28
2022-09-12T15:59:00.120Z,101140.56
2022-09-12T16:01:29.996Z,101137.31
2022-09-12T16:03:58.642Z,101131.97
2022-09-12T16:06:27.942Z,101115.16
2022-09-12T16:08:56.504Z,101132.06
2022-09-12T16:11:28.270Z,101116.25
2022-09-12T16:13:57.032Z,101116.47
2022-09-12T16:16:25.831Z,101121.78
2022-09-12T16:18:53.895Z,101127.22
2022-09-12T16:21:22.390Z,101123.81
2022-09-12T16:23:50.665Z,101118.50
2022-09-12T16:26:19.091Z,101113.25
2022-09-12T16:28:49.303Z,101113.53
2022-09-12T16:31:17.750Z,101095.06
2022-09-12T16:33:45.887Z,101100.41
2022-09-12T16:36:16.646Z,101094.47
2022-09-12T16:38:45.957Z,101092.41
2022-09-12T16:41:14.498Z,101097.56
2022-09-12T16:43:43.735Z,101081.00
2022-09-12T16:46:16.574Z,101082.88
2022-09-12T16:48:50.896Z,101080.41
2022-09-12T16:51:22.312Z,101074.13
2022-09-12T16:53:50.776Z,101072.44
2022-09-12T16:56:19.277Z,101064.47
2022-09-12T16:58:47.877Z,101068.13
2022-09-12T17:01:19.173Z,101059.44
2022-09-12T17:03:47.680Z,101055.84
2022-09-12T17:06:18.636Z,101054.00
2022-09-12T17:08:49.512Z,101038.00
2022-09-12T17:11:19.905Z,101032.69
2022-09-12T17:14:03.669Z,101030.75
2022-09-12T17:16:36.769Z,101026.63
2022-09-12T17:19:05.837Z,101023.16
2022-09-12T17:21:34.496Z,101016.91
2022-09-12T17:24:03.600Z,101016.19
2022-09-12T17:26:31.692Z,101013.69
2022-09-12T17:29:00.154Z,101011.91
2022-09-12T17:31:29.284Z,100997.78
2022-09-12T17:34:01.402Z,100997.94
2022-09-12T17:36:32.178Z,100992.78
2022-09-12T17:39:00.949Z,100981.09
2022-09-12T17:41:31.917Z,100975.16
2022-09-12T17:44:01.455Z,100974.22
2022-09-12T17:46:34.956Z,100959.28
2022-09-12T17:49:06.820Z,100962.84
2022-09-12T17:51:35.341Z,100958.38
2022-09-12T17:54:06.124Z,100953.31
2022-09-12T17:56:35.887Z,100953.31
2022-09-12T17:59:05.416Z,100943.63
2022-09-12T18:01:52.241Z,100936.63
2022-09-12T18:04:21.933Z,100922.44
2022-09-12T18:06:50.282Z,100928.63
2022-09-12T18:09:19.886Z,100925.22
2022-09-12T18:11:48.909Z,100925.31
2022-09-12T18:14:17.692Z,100910.38
2022-09-12T18:16:46.715Z,100904.97
2022-09-12T18:19:15.664Z,100912.97
2022-09-12T18:21:45.093Z,100906.81
2022-09-12T18:24:13.648Z,100905.06
2022-09-12T18:26:43.644Z,100897.09
2022-09-12T18:29:12.417Z,100895.31
2022-09-12T18:31:43.782Z,100897.22
2022-09-12T18:34:13.944Z,100896.25
2022-09-12T18:36:42.915Z,100891.81
2022-09-12T18:39:14.220Z,100887.47
2022-09-12T18:41:42.931Z,100873.13
2022-09-12T18:44:12.803Z,100869.66
2022-09-12T18:46:41.678Z,100871.50
2022-09-12T18:49:10.973Z,100861.72
2022-09-12T18:51:41.956Z,100864.41
2022-09-12T18:54:15.929Z,100859.19
2022-09-12T18:56:45.700Z,100852.97
2022-09-12T18:59:15.062Z,100853.69
2022-09-12T19:01:44.189Z,100846.81
2022-09-12T19:04:15.105Z,100838.13
2022-09-12T19:06:44.742Z,100840.38
2022-09-12T19:09:16.145Z,100834.34
2022-09-12T19:11:50.146Z,100822.16
2022-09-12T19:14:20.277Z,100814.81
2022-09-12T19:16:48.278Z,100812.19
2022-09-12T19:19:16.419Z,100809.56
2022-09-12T19:21:44.843Z,100805.06
2022-09-12T19:24:14.909Z,100821.09
2022-09-12T19:26:42.984Z,100806.03
2022-09-12T19:29:14.541Z,100802.59
2022-09-12T19:31:43.217Z,100793.78
2022-09-12T19:34:12.293Z,100780.72
2022-09-12T19:36:45.460Z,100790.16
2022-09-12T19:39:17.571Z,100781.31
2022-09-12T19:41:46.181Z,100772.41
2022-09-12T19:44:14.959Z,100769.75
2022-09-12T19:46:43.537Z,100763.63
2022-09-12T19:49:13.102Z,100752.16
2022-09-12T19:51:41.839Z,100750.50
2022-09-12T19:54:10.353Z,100747.84
2022-09-12T19:56:40.097Z,100740.69
2022-09-12T19:59:08.812Z,100738.09
2022-09-12T20:01:37.718Z,100737.13
2022-09-12T20:04:07.141Z,100731.72
2022-09-12T20:06:35.360Z,100729.13
2022-09-12T20:09:03.778Z,100735.47
2022-09-12T20:11:32.020Z,100733.63
2022-09-12T20:14:01.616Z,100731.97
2022-09-12T20:16:30.333Z,100708.88
2022-09-12T20:19:01.023Z,100705.47
2022-09-12T20:21:33.065Z,100709.84
2022-09-12T20:24:03.257Z,100707.13
2022-09-12T20:26:31.620Z,100687.47
2022-09-12T20:29:01.686Z,100680.44
2022-09-12T20:31:30.510Z,100680.47
2022-09-12T20:33:59.567Z,100659.16
2022-09-12T20:36:28.020Z,100650.38
2022-09-12T20:38:58.140Z,100641.53
2022-09-12T20:41:27.662Z,100646.75
2022-09-12T20:43:57.310Z,100630.81
2022-09-12T20:46:28.759Z,100623.63
2022-09-12T20:48:58.579Z,100622.00
2022-09-12T20:51:29.793Z,100618.31
2022-09-12T20:53:59.188Z,100620.06
2022-09-12T20:56:28.546Z,100614.75
2022-09-12T20:58:57.426Z,100616.50
2022-09-12T21:01:28.627Z,100613.13
2022-09-12T21:03:56.629Z,100595.41
2022-09-12T21:06:25.238Z,100595.22
2022-09-12T21:08:54.280Z,100591.84
2022-09-12T21:11:22.398Z,100584.56
2022-09-12T21:13:50.756Z,100579.34
2022-09-12T21:16:20.351Z,100568.63
2022-09-12T21:18:55.633Z,100565.25
2022-09-12T21:21:24.257Z,100563.34
2022-09-12T21:23:54.173Z,100559.69
2022-09-12T21:26:22.598Z,100550.91
2022-09-12T21:28:50.845Z,100546.41
2022-09-12T21:31:19.286Z,100531.59
2022-09-12T21:33:47.697Z,100540.25
2022-09-12T21:36:17.263Z,100542.13
2022-09-12T21:38:45.416Z,100538.66
2022-09-12T21:41:15.843Z,100531.47
2022-09-12T21:43:45.129Z,100518.06
2022-09-12T21:46:13.407Z,100509.22
2022-09-12T21:48:41.612Z,100515.19
2022-09-12T21:51:09.922Z,100508.88
2022-09-12T21:53:40.038Z,100513.22
2022-09-12T21:56:09.871Z,100516.56
2022-09-12T21:58:38.704Z,100508.50
2022-09-12T22:01:11.937Z,100504.06
2022-09-12T22:03:43.174Z,100491.56
2022-09-12T22:06:11.474Z,100483.72
2022-09-12T22:08:41.592Z,100491.56
2022-09-12T22:11:11.537Z,100482.56
2022-09-12T22:13:42.064Z,100480.94
2022-09-12T22:16:11.041Z,100482.56
2022-09-12T22:18:39.778Z,100480.72
2022-09-12T22:21:09.912Z,100483.31
2022-09-12T22:23:55.704Z,100484.06
2022-09-12T22:26:25.517Z,100475.47
2022-09-12T22:28:54.176Z,100472.66
2022-09-12T22:31:23.515Z,100469.19
2022-09-12T22:33:52.073Z,100459.53
2022-09-12T22:36:20.247Z,100458.63
2022-09-12T22:38:48.412Z,100452.59
2022-09-12T22:41:16.965Z,100436.75
2022-09-12T22:43:46.624Z,100437.72
2022-09-12T22:46:14.941Z,100422.53
2022-09-12T22:48:43.129Z,100415.34
2022-09-12T22:51:12.160Z,100409.16
2022-09-12T22:53:41.021Z,100388.88
2022-09-12T22:56:10.305Z,100390.59
2022-09-12T22:58:38.688Z,100380.81
2022-09-12T23:01:08.818Z,100377.22
2022-09-12T23:03:37.581Z,100363.75
2022-09-12T23:06:06.289Z,100361.16
2022-09-12T23:08:36.514Z,100359.41
2022-09-12T23:11:06.027Z,100353.97
2022-09-12T23:13:34.498Z,100339.91
2022-09-12T23:16:04.171Z,100335.41
2022-09-12T23:18:35.876Z,100330.22
2022-09-12T23:21:06.072Z,100335.53
2022-09-12T23:23:34.584Z,100330.09
2022-09-12T23:26:04.431Z,100323.03
2022-09-12T23:28:32.692Z,100315.72
2022-09-12T23:31:01.283Z,100312.28
2022-09-12T23:33:30.536Z,100311.78
2022-09-12T23:36:05.733Z,100305.69
2022-09-12T23:38:34.995Z,100281.56
2022-09-12T23:41:04.463Z,100281.56
2022-09-12T23:43:33.063Z,100291.56
2022-09-12T23:46:02.365Z,100275.91
2022-09-12T23:48:30.603Z,100273.25
2022-09-12T23:50:58.910Z,100273.47
2022-09-12T23:53:29.635Z,100269.91
2022-09-12T23:55:57.747Z,100258.47
2022-09-12T23:58:26.347Z,100228.47
